sensor_id;sensor_type;location;lat;lon;timestamp;P1;durP1;ratioP1;P2;durP2;ratioP2
61358;SDS011;47228;46.762;23.598;2023-12-22T00:00:02;56.80;;;26.20;;
61358;SDS011;47228;46.762;23.598;2023-12-22T00:02:33;59.40;;;29.00;;
61358;SDS011;47228;46.762;23.598;2023-12-22T00:05:01;56.00;;;24.80;;
61358;SDS011;47228;46.762;23.598;2023-12-22T00:07:29;60.20;;;27.10;;
61358;SDS011;47228;46.762;23.598;2023-12-22T00:09:57;56.90;;;26.50;;
61358;SDS011;47228;46.762;23.598;2023-12-22T00:12:25;58.00;;;26.60;;
61358;SDS011;47228;46.762;23.598;2023-12-22T00:14:54;58.60;;;26.70;;
61358;SDS011;47228;46.762;23.598;2023-12-22T00:17:22;62.60;;;28.60;;
61358;SDS011;47228;46.762;23.598;2023-12-22T00:19:50;59.60;;;26.40;;
61358;SDS011;47228;46.762;23.598;2023-12-22T00:22:19;58.20;;;26.90;;
61358;SDS011;47228;46.762;23.598;2023-12-22T00:24:47;55.60;;;26.70;;
61358;SDS011;47228;46.762;23.598;2023-12-22T00:27:15;57.40;;;26.70;;
61358;SDS011;47228;46.762;23.598;2023-12-22T00:29:44;59.60;;;27.60;;
61358;SDS011;47228;46.762;23.598;2023-12-22T00:32:12;57.50;;;26.30;;
61358;SDS011;47228;46.762;23.598;2023-12-22T00:34:40;60.40;;;29.40;;
61358;SDS011;47228;46.762;23.598;2023-12-22T00:37:08;58.50;;;26.20;;
61358;SDS011;47228;46.762;23.598;2023-12-22T00:39:36;56.50;;;26.70;;
61358;SDS011;47228;46.762;23.598;2023-12-22T00:42:04;65.50;;;28.80;;
61358;SDS011;47228;46.762;23.598;2023-12-22T00:44:33;60.00;;;27.10;;
61358;SDS011;47228;46.762;23.598;2023-12-22T00:47:01;57.30;;;27.10;;
61358;SDS011;47228;46.762;23.598;2023-12-22T00:49:29;59.20;;;26.50;;
61358;SDS011;47228;46.762;23.598;2023-12-22T00:51:57;63.40;;;26.50;;
61358;SDS011;47228;46.762;23.598;2023-12-22T00:54:25;59.70;;;26.10;;
61358;SDS011;47228;46.762;23.598;2023-12-22T00:56:53;61.40;;;26.20;;
61358;SDS011;47228;46.762;23.598;2023-12-22T00:59:21;61.60;;;26.40;;
61358;SDS011;47228;46.762;23.598;2023-12-22T01:01:50;56.20;;;25.50;;
61358;SDS011;47228;46.762;23.598;2023-12-22T01:04:18;55.20;;;26.10;;
61358;SDS011;47228;46.762;23.598;2023-12-22T01:06:47;57.70;;;26.80;;
61358;SDS011;47228;46.762;23.598;2023-12-22T01:09:15;58.80;;;26.60;;
61358;SDS011;47228;46.762;23.598;2023-12-22T01:11:43;57.40;;;26.30;;
61358;SDS011;47228;46.762;23.598;2023-12-22T01:14:11;62.60;;;27.30;;
61358;SDS011;47228;46.762;23.598;2023-12-22T01:16:40;56.90;;;26.70;;
61358;SDS011;47228;46.762;23.598;2023-12-22T01:19:09;59.80;;;27.50;;
61358;SDS011;47228;46.762;23.598;2023-12-22T01:21:37;57.40;;;28.20;;
61358;SDS011;47228;46.762;23.598;2023-12-22T01:24:06;50.80;;;24.70;;
61358;SDS011;47228;46.762;23.598;2023-12-22T01:26:34;52.10;;;26.10;;
61358;SDS011;47228;46.762;23.598;2023-12-22T01:29:02;58.40;;;26.40;;
61358;SDS011;47228;46.762;23.598;2023-12-22T01:31:31;56.40;;;26.60;;
61358;SDS011;47228;46.762;23.598;2023-12-22T01:34:00;61.50;;;28.40;;
61358;SDS011;47228;46.762;23.598;2023-12-22T01:36:28;70.00;;;31.30;;
61358;SDS011;47228;46.762;23.598;2023-12-22T01:38:56;69.10;;;31.30;;
61358;SDS011;47228;46.762;23.598;2023-12-22T01:41:25;65.90;;;29.80;;
61358;SDS011;47228;46.762;23.598;2023-12-22T01:43:53;56.90;;;25.70;;
61358;SDS011;47228;46.762;23.598;2023-12-22T01:46:21;53.20;;;26.10;;
61358;SDS011;47228;46.762;23.598;2023-12-22T01:48:50;54.40;;;26.20;;
61358;SDS011;47228;46.762;23.598;2023-12-22T01:51:18;54.80;;;24.70;;
61358;SDS011;47228;46.762;23.598;2023-12-22T01:53:47;56.20;;;25.00;;
61358;SDS011;47228;46.762;23.598;2023-12-22T01:56:15;52.70;;;26.10;;
61358;SDS011;47228;46.762;23.598;2023-12-22T01:58:44;57.20;;;27.40;;
61358;SDS011;47228;46.762;23.598;2023-12-22T02:01:12;58.60;;;26.30;;
61358;SDS011;47228;46.762;23.598;2023-12-22T02:03:41;61.70;;;27.20;;
61358;SDS011;47228;46.762;23.598;2023-12-22T02:06:10;60.40;;;26.60;;
61358;SDS011;47228;46.762;23.598;2023-12-22T02:08:38;54.30;;;26.10;;
61358;SDS011;47228;46.762;23.598;2023-12-22T02:11:08;51.60;;;24.90;;
61358;SDS011;47228;46.762;23.598;2023-12-22T02:13:36;54.20;;;25.90;;
61358;SDS011;47228;46.762;23.598;2023-12-22T02:16:06;56.60;;;26.50;;
61358;SDS011;47228;46.762;23.598;2023-12-22T02:18:53;55.30;;;26.80;;
61358;SDS011;47228;46.762;23.598;2023-12-22T02:21:24;52.90;;;25.80;;
61358;SDS011;47228;46.762;23.598;2023-12-22T02:23:52;49.10;;;24.80;;
61358;SDS011;47228;46.762;23.598;2023-12-22T02:26:33;51.10;;;24.40;;
61358;SDS011;47228;46.762;23.598;2023-12-22T02:29:08;51.00;;;25.30;;
61358;SDS011;47228;46.762;23.598;2023-12-22T02:31:43;50.60;;;25.00;;
61358;SDS011;47228;46.762;23.598;2023-12-22T02:34:18;46.40;;;23.80;;
61358;SDS011;47228;46.762;23.598;2023-12-22T02:36:48;49.70;;;24.30;;
61358;SDS011;47228;46.762;23.598;2023-12-22T02:39:19;49.90;;;25.20;;
61358;SDS011;47228;46.762;23.598;2023-12-22T02:41:48;49.20;;;24.50;;
61358;SDS011;47228;46.762;23.598;2023-12-22T02:44:17;50.50;;;24.30;;
61358;SDS011;47228;46.762;23.598;2023-12-22T02:46:46;49.50;;;24.30;;
61358;SDS011;47228;46.762;23.598;2023-12-22T02:49:14;54.90;;;26.90;;
61358;SDS011;47228;46.762;23.598;2023-12-22T02:51:42;53.20;;;25.10;;
61358;SDS011;47228;46.762;23.598;2023-12-22T02:54:10;49.60;;;24.40;;
61358;SDS011;47228;46.762;23.598;2023-12-22T02:56:38;48.90;;;24.90;;
61358;SDS011;47228;46.762;23.598;2023-12-22T02:59:08;50.50;;;25.00;;
61358;SDS011;47228;46.762;23.598;2023-12-22T03:01:37;51.00;;;24.30;;
61358;SDS011;47228;46.762;23.598;2023-12-22T03:04:05;51.10;;;22.50;;
61358;SDS011;47228;46.762;23.598;2023-12-22T03:06:33;48.20;;;22.90;;
61358;SDS011;47228;46.762;23.598;2023-12-22T03:09:02;50.10;;;24.30;;
61358;SDS011;47228;46.762;23.598;2023-12-22T03:11:30;47.70;;;22.90;;
61358;SDS011;47228;46.762;23.598;2023-12-22T03:13:58;45.70;;;22.30;;
61358;SDS011;47228;46.762;23.598;2023-12-22T03:16:26;44.20;;;23.30;;
61358;SDS011;47228;46.762;23.598;2023-12-22T03:18:54;46.00;;;22.60;;
61358;SDS011;47228;46.762;23.598;2023-12-22T03:21:23;49.40;;;24.90;;
61358;SDS011;47228;46.762;23.598;2023-12-22T03:23:51;49.90;;;23.70;;
61358;SDS011;47228;46.762;23.598;2023-12-22T03:26:19;47.30;;;24.10;;
61358;SDS011;47228;46.762;23.598;2023-12-22T03:28:47;51.20;;;24.60;;
61358;SDS011;47228;46.762;23.598;2023-12-22T03:31:15;44.60;;;22.50;;
61358;SDS011;47228;46.762;23.598;2023-12-22T03:33:43;50.40;;;25.20;;
61358;SDS011;47228;46.762;23.598;2023-12-22T03:36:11;46.40;;;22.70;;
61358;SDS011;47228;46.762;23.598;2023-12-22T03:38:39;48.20;;;22.10;;
61358;SDS011;47228;46.762;23.598;2023-12-22T03:41:07;50.10;;;23.80;;
61358;SDS011;47228;46.762;23.598;2023-12-22T03:43:35;52.10;;;24.60;;
61358;SDS011;47228;46.762;23.598;2023-12-22T03:46:04;54.50;;;25.30;;
61358;SDS011;47228;46.762;23.598;2023-12-22T03:48:32;54.90;;;28.10;;
61358;SDS011;47228;46.762;23.598;2023-12-22T03:51:01;57.20;;;27.10;;
61358;SDS011;47228;46.762;23.598;2023-12-22T03:53:29;55.50;;;26.60;;
61358;SDS011;47228;46.762;23.598;2023-12-22T03:55:57;57.30;;;27.40;;
61358;SDS011;47228;46.762;23.598;2023-12-22T03:58:25;54.60;;;27.30;;
61358;SDS011;47228;46.762;23.598;2023-12-22T04:00:54;53.20;;;24.90;;
61358;SDS011;47228;46.762;23.598;2023-12-22T04:03:22;54.10;;;26.30;;
61358;SDS011;47228;46.762;23.598;2023-12-22T04:05:51;52.30;;;25.80;;
61358;SDS011;47228;46.762;23.598;2023-12-22T04:08:19;56.80;;;26.70;;
61358;SDS011;47228;46.762;23.598;2023-12-22T04:10:50;57.60;;;26.20;;
61358;SDS011;47228;46.762;23.598;2023-12-22T04:13:18;56.00;;;25.80;;
61358;SDS011;47228;46.762;23.598;2023-12-22T04:15:46;55.70;;;26.80;;
61358;SDS011;47228;46.762;23.598;2023-12-22T04:18:15;55.10;;;26.70;;
61358;SDS011;47228;46.762;23.598;2023-12-22T04:20:44;53.00;;;24.60;;
61358;SDS011;47228;46.762;23.598;2023-12-22T04:23:12;49.50;;;24.00;;
61358;SDS011;47228;46.762;23.598;2023-12-22T04:25:40;46.70;;;21.50;;
61358;SDS011;47228;46.762;23.598;2023-12-22T04:28:08;41.20;;;20.80;;
61358;SDS011;47228;46.762;23.598;2023-12-22T04:30:36;31.70;;;15.20;;
61358;SDS011;47228;46.762;23.598;2023-12-22T04:33:05;32.40;;;16.90;;
61358;SDS011;47228;46.762;23.598;2023-12-22T04:35:33;37.40;;;17.00;;
61358;SDS011;47228;46.762;23.598;2023-12-22T04:38:01;33.70;;;17.30;;
61358;SDS011;47228;46.762;23.598;2023-12-22T04:40:30;37.80;;;18.70;;
61358;SDS011;47228;46.762;23.598;2023-12-22T04:42:59;37.60;;;19.60;;
61358;SDS011;47228;46.762;23.598;2023-12-22T04:45:27;27.60;;;14.10;;
61358;SDS011;47228;46.762;23.598;2023-12-22T04:47:55;31.00;;;16.40;;
61358;SDS011;47228;46.762;23.598;2023-12-22T04:50:25;33.60;;;17.60;;
61358;SDS011;47228;46.762;23.598;2023-12-22T04:52:53;42.00;;;18.80;;
61358;SDS011;47228;46.762;23.598;2023-12-22T04:55:21;36.90;;;18.10;;
61358;SDS011;47228;46.762;23.598;2023-12-22T04:57:50;40.90;;;20.20;;
61358;SDS011;47228;46.762;23.598;2023-12-22T05:00:18;35.90;;;18.70;;
61358;SDS011;47228;46.762;23.598;2023-12-22T05:02:46;41.20;;;18.90;;
61358;SDS011;47228;46.762;23.598;2023-12-22T05:05:14;35.80;;;18.60;;
61358;SDS011;47228;46.762;23.598;2023-12-22T05:07:42;40.10;;;20.10;;
61358;SDS011;47228;46.762;23.598;2023-12-22T05:10:11;39.20;;;19.60;;
61358;SDS011;47228;46.762;23.598;2023-12-22T05:12:39;37.30;;;18.50;;
61358;SDS011;47228;46.762;23.598;2023-12-22T05:15:10;36.70;;;17.20;;
61358;SDS011;47228;46.762;23.598;2023-12-22T05:17:38;33.20;;;16.80;;
61358;SDS011;47228;46.762;23.598;2023-12-22T05:20:08;34.30;;;16.90;;
61358;SDS011;47228;46.762;23.598;2023-12-22T05:22:37;31.00;;;16.50;;
61358;SDS011;47228;46.762;23.598;2023-12-22T05:25:06;30.70;;;15.80;;
61358;SDS011;47228;46.762;23.598;2023-12-22T05:27:34;31.30;;;16.30;;
61358;SDS011;47228;46.762;23.598;2023-12-22T05:30:03;32.00;;;16.60;;
61358;SDS011;47228;46.762;23.598;2023-12-22T05:32:31;31.30;;;16.80;;
61358;SDS011;47228;46.762;23.598;2023-12-22T05:34:59;32.30;;;18.40;;
61358;SDS011;47228;46.762;23.598;2023-12-22T05:37:28;35.50;;;16.20;;
61358;SDS011;47228;46.762;23.598;2023-12-22T05:39:56;33.90;;;17.40;;
61358;SDS011;47228;46.762;23.598;2023-12-22T05:42:24;30.10;;;15.70;;
61358;SDS011;47228;46.762;23.598;2023-12-22T05:44:52;33.90;;;16.90;;
61358;SDS011;47228;46.762;23.598;2023-12-22T05:47:20;34.90;;;17.20;;
61358;SDS011;47228;46.762;23.598;2023-12-22T05:49:48;35.00;;;17.60;;
61358;SDS011;47228;46.762;23.598;2023-12-22T05:52:17;40.70;;;19.90;;
61358;SDS011;47228;46.762;23.598;2023-12-22T05:54:45;44.10;;;21.80;;
61358;SDS011;47228;46.762;23.598;2023-12-22T05:57:13;47.80;;;23.40;;
61358;SDS011;47228;46.762;23.598;2023-12-22T05:59:41;73.90;;;31.40;;
61358;SDS011;47228;46.762;23.598;2023-12-22T06:02:09;74.90;;;33.30;;
61358;SDS011;47228;46.762;23.598;2023-12-22T06:04:38;77.40;;;35.60;;
61358;SDS011;47228;46.762;23.598;2023-12-22T06:07:06;79.70;;;36.00;;
61358;SDS011;47228;46.762;23.598;2023-12-22T06:09:34;76.20;;;34.30;;
61358;SDS011;47228;46.762;23.598;2023-12-22T06:12:02;78.00;;;34.90;;
61358;SDS011;47228;46.762;23.598;2023-12-22T06:14:31;74.30;;;33.90;;
61358;SDS011;47228;46.762;23.598;2023-12-22T06:17:00;73.50;;;34.90;;
61358;SDS011;47228;46.762;23.598;2023-12-22T06:19:28;70.80;;;34.00;;
61358;SDS011;47228;46.762;23.598;2023-12-22T06:21:58;66.80;;;32.60;;
61358;SDS011;47228;46.762;23.598;2023-12-22T06:24:27;61.30;;;30.20;;
61358;SDS011;47228;46.762;23.598;2023-12-22T06:26:56;69.30;;;32.90;;
61358;SDS011;47228;46.762;23.598;2023-12-22T06:29:24;54.70;;;25.10;;
61358;SDS011;47228;46.762;23.598;2023-12-22T06:31:56;47.10;;;23.00;;
61358;SDS011;47228;46.762;23.598;2023-12-22T06:34:25;44.60;;;21.90;;
61358;SDS011;47228;46.762;23.598;2023-12-22T06:36:53;33.40;;;17.40;;
61358;SDS011;47228;46.762;23.598;2023-12-22T06:39:21;25.20;;;13.00;;
61358;SDS011;47228;46.762;23.598;2023-12-22T06:41:49;24.70;;;11.20;;
61358;SDS011;47228;46.762;23.598;2023-12-22T06:44:18;21.30;;;11.10;;
61358;SDS011;47228;46.762;23.598;2023-12-22T06:46:47;15.70;;;8.60;;
61358;SDS011;47228;46.762;23.598;2023-12-22T06:49:15;18.50;;;9.10;;
61358;SDS011;47228;46.762;23.598;2023-12-22T06:51:43;18.70;;;9.30;;
61358;SDS011;47228;46.762;23.598;2023-12-22T06:54:11;14.70;;;8.00;;
61358;SDS011;47228;46.762;23.598;2023-12-22T06:56:44;13.80;;;7.20;;
61358;SDS011;47228;46.762;23.598;2023-12-22T06:59:12;17.20;;;7.50;;
61358;SDS011;47228;46.762;23.598;2023-12-22T07:02:06;14.80;;;8.30;;
61358;SDS011;47228;46.762;23.598;2023-12-22T07:06:07;14.10;;;7.40;;
61358;SDS011;47228;46.762;23.598;2023-12-22T07:09:32;13.20;;;7.40;;
61358;SDS011;47228;46.762;23.598;2023-12-22T07:13:12;16.30;;;8.50;;
61358;SDS011;47228;46.762;23.598;2023-12-22T07:15:41;14.60;;;8.20;;
61358;SDS011;47228;46.762;23.598;2023-12-22T07:18:10;19.30;;;9.20;;
61358;SDS011;47228;46.762;23.598;2023-12-22T07:20:38;18.40;;;9.50;;
61358;SDS011;47228;46.762;23.598;2023-12-22T07:23:07;18.40;;;10.40;;
61358;SDS011;47228;46.762;23.598;2023-12-22T07:25:39;15.30;;;9.10;;
61358;SDS011;47228;46.762;23.598;2023-12-22T07:28:07;17.30;;;8.50;;
61358;SDS011;47228;46.762;23.598;2023-12-22T07:30:36;17.40;;;7.80;;
61358;SDS011;47228;46.762;23.598;2023-12-22T07:33:04;15.50;;;7.10;;
61358;SDS011;47228;46.762;23.598;2023-12-22T07:35:33;16.20;;;6.70;;
61358;SDS011;47228;46.762;23.598;2023-12-22T07:38:02;15.60;;;7.60;;
61358;SDS011;47228;46.762;23.598;2023-12-22T07:40:31;14.10;;;7.10;;
61358;SDS011;47228;46.762;23.598;2023-12-22T07:42:59;14.10;;;6.70;;
61358;SDS011;47228;46.762;23.598;2023-12-22T07:45:27;13.80;;;5.90;;
61358;SDS011;47228;46.762;23.598;2023-12-22T07:47:57;15.00;;;5.30;;
61358;SDS011;47228;46.762;23.598;2023-12-22T07:50:27;14.00;;;5.40;;
61358;SDS011;47228;46.762;23.598;2023-12-22T07:52:55;12.00;;;3.80;;
61358;SDS011;47228;46.762;23.598;2023-12-22T07:55:23;12.90;;;5.30;;
61358;SDS011;47228;46.762;23.598;2023-12-22T07:57:52;13.50;;;6.10;;
61358;SDS011;47228;46.762;23.598;2023-12-22T08:00:20;16.20;;;5.00;;
61358;SDS011;47228;46.762;23.598;2023-12-22T08:02:49;15.60;;;5.00;;
61358;SDS011;47228;46.762;23.598;2023-12-22T08:05:18;11.20;;;4.50;;
61358;SDS011;47228;46.762;23.598;2023-12-22T08:07:46;11.40;;;5.00;;
61358;SDS011;47228;46.762;23.598;2023-12-22T08:10:15;13.70;;;4.80;;
61358;SDS011;47228;46.762;23.598;2023-12-22T08:12:44;14.50;;;5.20;;
61358;SDS011;47228;46.762;23.598;2023-12-22T08:15:11;13.60;;;4.70;;
61358;SDS011;47228;46.762;23.598;2023-12-22T08:17:52;13.50;;;5.80;;
61358;SDS011;47228;46.762;23.598;2023-12-22T08:20:21;18.00;;;5.70;;
61358;SDS011;47228;46.762;23.598;2023-12-22T08:22:58;13.20;;;4.70;;
61358;SDS011;47228;46.762;23.598;2023-12-22T08:25:32;12.80;;;4.50;;
61358;SDS011;47228;46.762;23.598;2023-12-22T08:28:00;14.30;;;4.70;;
61358;SDS011;47228;46.762;23.598;2023-12-22T08:30:29;10.40;;;4.00;;
61358;SDS011;47228;46.762;23.598;2023-12-22T08:32:57;16.60;;;5.40;;
61358;SDS011;47228;46.762;23.598;2023-12-22T08:35:25;11.50;;;4.30;;
61358;SDS011;47228;46.762;23.598;2023-12-22T08:37:54;14.60;;;4.40;;
61358;SDS011;47228;46.762;23.598;2023-12-22T08:40:22;15.60;;;4.00;;
61358;SDS011;47228;46.762;23.598;2023-12-22T08:42:55;16.70;;;4.70;;
61358;SDS011;47228;46.762;23.598;2023-12-22T08:45:28;16.70;;;4.00;;
61358;SDS011;47228;46.762;23.598;2023-12-22T08:47:57;10.00;;;3.30;;
61358;SDS011;47228;46.762;23.598;2023-12-22T08:50:26;13.30;;;3.20;;
61358;SDS011;47228;46.762;23.598;2023-12-22T08:52:54;15.60;;;4.10;;
61358;SDS011;47228;46.762;23.598;2023-12-22T08:55:23;10.90;;;3.20;;
61358;SDS011;47228;46.762;23.598;2023-12-22T08:57:53;11.20;;;3.20;;
61358;SDS011;47228;46.762;23.598;2023-12-22T09:00:29;10.80;;;3.40;;
61358;SDS011;47228;46.762;23.598;2023-12-22T09:02:57;15.40;;;4.30;;
61358;SDS011;47228;46.762;23.598;2023-12-22T09:05:26;12.10;;;3.20;;
61358;SDS011;47228;46.762;23.598;2023-12-22T09:07:54;9.50;;;3.60;;
61358;SDS011;47228;46.762;23.598;2023-12-22T09:10:22;8.00;;;3.70;;
61358;SDS011;47228;46.762;23.598;2023-12-22T09:12:51;13.60;;;3.50;;
61358;SDS011;47228;46.762;23.598;2023-12-22T09:15:19;11.60;;;3.60;;
61358;SDS011;47228;46.762;23.598;2023-12-22T09:17:47;11.70;;;4.10;;
61358;SDS011;47228;46.762;23.598;2023-12-22T09:20:16;11.70;;;3.80;;
61358;SDS011;47228;46.762;23.598;2023-12-22T09:22:44;7.90;;;3.50;;
61358;SDS011;47228;46.762;23.598;2023-12-22T09:25:12;8.90;;;3.40;;
61358;SDS011;47228;46.762;23.598;2023-12-22T09:27:40;14.30;;;4.20;;
61358;SDS011;47228;46.762;23.598;2023-12-22T09:30:09;10.20;;;3.40;;
61358;SDS011;47228;46.762;23.598;2023-12-22T09:32:37;10.70;;;4.30;;
61358;SDS011;47228;46.762;23.598;2023-12-22T09:35:06;9.50;;;3.10;;
61358;SDS011;47228;46.762;23.598;2023-12-22T09:37:35;9.20;;;3.50;;
61358;SDS011;47228;46.762;23.598;2023-12-22T09:40:05;9.60;;;3.30;;
61358;SDS011;47228;46.762;23.598;2023-12-22T09:42:39;13.40;;;3.50;;
61358;SDS011;47228;46.762;23.598;2023-12-22T09:45:13;7.90;;;3.20;;
61358;SDS011;47228;46.762;23.598;2023-12-22T09:47:48;10.60;;;3.50;;
61358;SDS011;47228;46.762;23.598;2023-12-22T09:50:19;9.10;;;3.30;;
61358;SDS011;47228;46.762;23.598;2023-12-22T09:52:49;12.20;;;3.90;;
61358;SDS011;47228;46.762;23.598;2023-12-22T09:55:17;9.40;;;3.50;;
61358;SDS011;47228;46.762;23.598;2023-12-22T09:57:49;10.40;;;2.90;;
61358;SDS011;47228;46.762;23.598;2023-12-22T10:00:19;10.10;;;3.10;;
61358;SDS011;47228;46.762;23.598;2023-12-22T10:02:49;15.80;;;2.90;;
61358;SDS011;47228;46.762;23.598;2023-12-22T10:05:17;9.60;;;3.00;;
61358;SDS011;47228;46.762;23.598;2023-12-22T10:07:46;11.50;;;2.80;;
61358;SDS011;47228;46.762;23.598;2023-12-22T10:10:15;12.10;;;3.60;;
61358;SDS011;47228;46.762;23.598;2023-12-22T10:12:45;8.40;;;3.30;;
61358;SDS011;47228;46.762;23.598;2023-12-22T10:15:14;9.70;;;3.50;;
61358;SDS011;47228;46.762;23.598;2023-12-22T10:17:43;7.90;;;2.70;;
61358;SDS011;47228;46.762;23.598;2023-12-22T10:20:12;10.90;;;3.60;;
61358;SDS011;47228;46.762;23.598;2023-12-22T10:22:40;10.10;;;3.00;;
61358;SDS011;47228;46.762;23.598;2023-12-22T10:25:08;13.00;;;3.70;;
61358;SDS011;47228;46.762;23.598;2023-12-22T10:27:36;10.20;;;3.00;;
61358;SDS011;47228;46.762;23.598;2023-12-22T10:30:08;12.90;;;2.90;;
61358;SDS011;47228;46.762;23.598;2023-12-22T10:32:40;10.50;;;3.30;;
61358;SDS011;47228;46.762;23.598;2023-12-22T10:35:10;10.50;;;3.20;;
61358;SDS011;47228;46.762;23.598;2023-12-22T10:37:39;10.30;;;3.80;;
61358;SDS011;47228;46.762;23.598;2023-12-22T10:40:08;11.30;;;3.00;;
61358;SDS011;47228;46.762;23.598;2023-12-22T10:42:37;7.90;;;2.70;;
61358;SDS011;47228;46.762;23.598;2023-12-22T10:45:05;6.00;;;2.50;;
61358;SDS011;47228;46.762;23.598;2023-12-22T10:47:37;14.00;;;3.30;;
61358;SDS011;47228;46.762;23.598;2023-12-22T10:50:07;13.50;;;2.90;;
61358;SDS011;47228;46.762;23.598;2023-12-22T10:52:36;10.20;;;2.90;;
61358;SDS011;47228;46.762;23.598;2023-12-22T10:55:04;6.20;;;3.20;;
61358;SDS011;47228;46.762;23.598;2023-12-22T10:57:33;11.70;;;2.80;;
61358;SDS011;47228;46.762;23.598;2023-12-22T11:00:06;10.00;;;2.60;;
61358;SDS011;47228;46.762;23.598;2023-12-22T11:02:37;5.60;;;2.40;;
61358;SDS011;47228;46.762;23.598;2023-12-22T11:05:11;6.60;;;2.60;;
61358;SDS011;47228;46.762;23.598;2023-12-22T11:07:40;6.00;;;2.20;;
61358;SDS011;47228;46.762;23.598;2023-12-22T11:10:09;9.80;;;2.80;;
61358;SDS011;47228;46.762;23.598;2023-12-22T11:12:40;7.40;;;2.40;;
61358;SDS011;47228;46.762;23.598;2023-12-22T11:15:11;6.60;;;2.20;;
61358;SDS011;47228;46.762;23.598;2023-12-22T11:17:42;6.90;;;2.70;;
61358;SDS011;47228;46.762;23.598;2023-12-22T11:20:12;7.80;;;2.60;;
61358;SDS011;47228;46.762;23.598;2023-12-22T11:22:41;9.10;;;2.70;;
61358;SDS011;47228;46.762;23.598;2023-12-22T11:25:10;8.90;;;2.50;;
61358;SDS011;47228;46.762;23.598;2023-12-22T11:27:44;11.10;;;2.60;;
61358;SDS011;47228;46.762;23.598;2023-12-22T11:30:14;5.40;;;2.80;;
61358;SDS011;47228;46.762;23.598;2023-12-22T11:32:46;10.90;;;3.10;;
61358;SDS011;47228;46.762;23.598;2023-12-22T11:35:17;12.30;;;3.10;;
61358;SDS011;47228;46.762;23.598;2023-12-22T11:37:45;9.30;;;2.80;;
61358;SDS011;47228;46.762;23.598;2023-12-22T11:40:15;11.70;;;2.60;;
61358;SDS011;47228;46.762;23.598;2023-12-22T11:42:45;6.60;;;2.80;;
61358;SDS011;47228;46.762;23.598;2023-12-22T11:45:19;10.00;;;2.70;;
61358;SDS011;47228;46.762;23.598;2023-12-22T11:47:47;12.30;;;2.80;;
61358;SDS011;47228;46.762;23.598;2023-12-22T11:50:29;8.60;;;2.40;;
61358;SDS011;47228;46.762;23.598;2023-12-22T11:58:41;10.90;;;2.90;;
61358;SDS011;47228;46.762;23.598;2023-12-22T12:01:12;11.60;;;2.50;;
61358;SDS011;47228;46.762;23.598;2023-12-22T12:08:57;6.10;;;2.40;;
61358;SDS011;47228;46.762;23.598;2023-12-22T12:14:26;10.70;;;2.70;;
61358;SDS011;47228;46.762;23.598;2023-12-22T12:17:03;8.70;;;2.70;;
61358;SDS011;47228;46.762;23.598;2023-12-22T12:19:39;7.10;;;3.00;;
61358;SDS011;47228;46.762;23.598;2023-12-22T12:22:11;4.50;;;2.10;;
61358;SDS011;47228;46.762;23.598;2023-12-22T12:24:41;7.70;;;2.30;;
61358;SDS011;47228;46.762;23.598;2023-12-22T12:27:09;7.60;;;2.50;;
61358;SDS011;47228;46.762;23.598;2023-12-22T12:29:38;9.00;;;3.30;;
61358;SDS011;47228;46.762;23.598;2023-12-22T12:32:07;8.30;;;2.60;;
61358;SDS011;47228;46.762;23.598;2023-12-22T12:34:37;9.00;;;2.20;;
61358;SDS011;47228;46.762;23.598;2023-12-22T12:37:05;11.00;;;2.70;;
61358;SDS011;47228;46.762;23.598;2023-12-22T12:39:34;7.10;;;2.50;;
61358;SDS011;47228;46.762;23.598;2023-12-22T12:42:06;5.70;;;2.20;;
61358;SDS011;47228;46.762;23.598;2023-12-22T12:44:36;5.60;;;2.00;;
61358;SDS011;47228;46.762;23.598;2023-12-22T12:47:12;8.90;;;2.20;;
61358;SDS011;47228;46.762;23.598;2023-12-22T12:49:42;7.30;;;2.10;;
61358;SDS011;47228;46.762;23.598;2023-12-22T12:52:13;10.30;;;2.20;;
61358;SDS011;47228;46.762;23.598;2023-12-22T12:54:43;10.60;;;2.80;;
61358;SDS011;47228;46.762;23.598;2023-12-22T12:57:15;9.30;;;2.20;;
61358;SDS011;47228;46.762;23.598;2023-12-22T12:59:49;13.70;;;2.40;;
61358;SDS011;47228;46.762;23.598;2023-12-22T13:02:18;7.30;;;2.20;;
61358;SDS011;47228;46.762;23.598;2023-12-22T13:04:48;8.60;;;2.00;;
61358;SDS011;47228;46.762;23.598;2023-12-22T13:07:26;9.80;;;2.10;;
61358;SDS011;47228;46.762;23.598;2023-12-22T13:09:54;7.40;;;2.20;;
61358;SDS011;47228;46.762;23.598;2023-12-22T13:12:24;9.90;;;2.50;;
61358;SDS011;47228;46.762;23.598;2023-12-22T13:14:53;6.50;;;1.90;;
61358;SDS011;47228;46.762;23.598;2023-12-22T13:17:21;7.90;;;2.20;;
61358;SDS011;47228;46.762;23.598;2023-12-22T13:19:50;12.20;;;2.60;;
61358;SDS011;47228;46.762;23.598;2023-12-22T13:22:19;11.30;;;2.30;;
61358;SDS011;47228;46.762;23.598;2023-12-22T13:24:58;26.30;;;3.30;;
61358;SDS011;47228;46.762;23.598;2023-12-22T13:27:27;8.50;;;2.30;;
61358;SDS011;47228;46.762;23.598;2023-12-22T13:29:55;7.40;;;2.10;;
61358;SDS011;47228;46.762;23.598;2023-12-22T13:32:24;9.10;;;2.30;;
61358;SDS011;47228;46.762;23.598;2023-12-22T13:34:55;8.00;;;2.30;;
61358;SDS011;47228;46.762;23.598;2023-12-22T13:37:24;7.80;;;2.50;;
61358;SDS011;47228;46.762;23.598;2023-12-22T13:39:59;9.90;;;2.60;;
61358;SDS011;47228;46.762;23.598;2023-12-22T13:42:27;7.40;;;2.40;;
61358;SDS011;47228;46.762;23.598;2023-12-22T13:44:56;7.20;;;2.00;;
61358;SDS011;47228;46.762;23.598;2023-12-22T13:47:24;8.00;;;2.50;;
61358;SDS011;47228;46.762;23.598;2023-12-22T13:49:56;11.40;;;2.90;;
61358;SDS011;47228;46.762;23.598;2023-12-22T13:52:29;8.10;;;2.90;;
61358;SDS011;47228;46.762;23.598;2023-12-22T13:55:09;9.70;;;2.30;;
61358;SDS011;47228;46.762;23.598;2023-12-22T13:57:41;6.10;;;2.30;;
61358;SDS011;47228;46.762;23.598;2023-12-22T14:02:47;7.20;;;2.30;;
61358;SDS011;47228;46.762;23.598;2023-12-22T14:05:19;7.10;;;2.30;;
61358;SDS011;47228;46.762;23.598;2023-12-22T14:07:47;14.70;;;2.60;;
61358;SDS011;47228;46.762;23.598;2023-12-22T14:10:17;7.90;;;2.50;;
61358;SDS011;47228;46.762;23.598;2023-12-22T14:12:45;8.30;;;2.20;;
61358;SDS011;47228;46.762;23.598;2023-12-22T14:15:13;6.30;;;2.00;;
61358;SDS011;47228;46.762;23.598;2023-12-22T14:17:41;10.80;;;2.90;;
61358;SDS011;47228;46.762;23.598;2023-12-22T14:20:10;11.50;;;2.40;;
61358;SDS011;47228;46.762;23.598;2023-12-22T14:22:39;6.20;;;2.50;;
61358;SDS011;47228;46.762;23.598;2023-12-22T14:25:08;7.20;;;1.90;;
61358;SDS011;47228;46.762;23.598;2023-12-22T14:27:36;7.50;;;2.10;;
61358;SDS011;47228;46.762;23.598;2023-12-22T14:30:04;9.60;;;2.50;;
61358;SDS011;47228;46.762;23.598;2023-12-22T14:32:36;9.70;;;2.10;;
61358;SDS011;47228;46.762;23.598;2023-12-22T14:35:04;6.60;;;2.40;;
61358;SDS011;47228;46.762;23.598;2023-12-22T14:37:33;14.10;;;3.00;;
61358;SDS011;47228;46.762;23.598;2023-12-22T14:40:03;9.80;;;3.10;;
61358;SDS011;47228;46.762;23.598;2023-12-22T14:42:32;8.70;;;2.90;;
61358;SDS011;47228;46.762;23.598;2023-12-22T14:45:01;12.50;;;3.40;;
61358;SDS011;47228;46.762;23.598;2023-12-22T14:47:30;10.80;;;3.40;;
61358;SDS011;47228;46.762;23.598;2023-12-22T14:49:58;9.40;;;3.00;;